Terminal Aerodrome Forecast
Issued by NWS Bismarck, ND

Home | Current Version | Previous Version | Graphics & Text | Print | Product List | Glossary On
Versions: 1 2 3 4 5 6 7 8 9 10 11 12 13 14 15 16 17 18 19 20 21
000
FTUS43 KBIS 021442 AAB
TAFBIS
TAF AMD
KBIS 021442Z 0215/0312 30005KT 6SM FU BKN015
     FM022100 33007KT P6SM VCTS SCT050CB
     FM030400 32004KT P6SM SKC=

USA.gov is the U.S. government's official web portal to all federal, state and local government web resources and services.